createdAt,value
2022-11-29T00:01:27.630Z,101161.00
2022-11-29T00:03:54.817Z,101169.00
2022-11-29T00:06:28.687Z,101173.00
2022-11-29T00:08:58.805Z,101167.00
2022-11-29T00:11:49.122Z,101167.00
2022-11-29T00:14:18.982Z,101166.00
2022-11-29T00:16:51.158Z,101172.00
2022-11-29T00:19:18.699Z,101163.00
2022-11-29T00:21:45.471Z,101161.00
2022-11-29T00:24:12.366Z,101157.00
2022-11-29T00:26:39.149Z,101164.00
2022-11-29T00:29:06.317Z,101159.00
2022-11-29T00:31:33.971Z,101170.00
2022-11-29T00:34:04.429Z,101158.00
2022-11-29T00:36:31.317Z,101169.00
2022-11-29T00:38:58.266Z,101178.00
2022-11-29T00:41:25.576Z,101171.00
2022-11-29T00:43:52.303Z,101169.00
2022-11-29T00:46:19.394Z,101170.00
2022-11-29T00:48:46.168Z,101164.00
2022-11-29T00:51:13.039Z,101171.00
2022-11-29T00:53:39.973Z,101168.00
2022-11-29T00:56:07.444Z,101169.00
2022-11-29T00:58:36.343Z,101162.00
2022-11-29T01:01:04.218Z,101168.00
2022-11-29T01:03:31.557Z,101176.00
2022-11-29T01:06:08.646Z,101170.00
2022-11-29T01:08:36.369Z,101162.00
2022-11-29T01:11:20.520Z,101168.00
2022-11-29T01:13:48.957Z,101165.00
2022-11-29T01:16:17.174Z,101167.00
2022-11-29T01:18:44.549Z,101162.00
2022-11-29T01:21:18.482Z,101174.00
2022-11-29T01:23:45.846Z,101170.00
2022-11-29T01:26:20.262Z,101164.00
2022-11-29T01:28:49.938Z,101164.00
2022-11-29T01:31:29.996Z,101173.00
2022-11-29T01:33:59.772Z,101174.00
2022-11-29T01:36:27.565Z,101176.00
2022-11-29T01:38:54.805Z,101172.00
2022-11-29T01:41:28.997Z,101180.00
2022-11-29T01:44:03.662Z,101172.00
2022-11-29T01:46:40.044Z,101173.00
2022-11-29T01:49:15.350Z,101164.00
2022-11-29T01:51:48.200Z,101165.00
2022-11-29T01:54:15.388Z,101163.00
2022-11-29T01:56:45.289Z,101164.00
2022-11-29T01:59:18.597Z,101162.00
2022-11-29T02:01:45.491Z,101160.00
2022-11-29T02:04:12.646Z,101161.00
2022-11-29T02:06:41.448Z,101159.00
2022-11-29T02:09:23.168Z,101169.00
2022-11-29T02:12:03.844Z,101176.00
2022-11-29T02:15:18.562Z,101166.00
2022-11-29T02:18:04.281Z,101169.00
2022-11-29T02:21:00.099Z,101170.00
2022-11-29T02:23:47.523Z,101169.00
2022-11-29T02:26:59.756Z,101168.00
2022-11-29T02:29:32.159Z,101163.00
2022-11-29T02:32:39.621Z,101172.00
2022-11-29T02:35:29.509Z,101172.00
2022-11-29T02:38:44.749Z,101178.00
2022-11-29T02:41:30.918Z,101179.00
2022-11-29T02:44:23.453Z,101174.00
2022-11-29T02:47:22.625Z,101177.00
2022-11-29T02:50:29.714Z,101188.00
2022-11-29T02:53:20.258Z,101179.00
2022-11-29T02:56:18.458Z,101187.00
2022-11-29T02:59:02.258Z,101191.00
2022-11-29T03:01:46.308Z,101189.00
2022-11-29T03:04:33.893Z,101197.00
2022-11-29T03:07:27.445Z,101185.00
2022-11-29T03:10:12.080Z,101194.00
2022-11-29T03:12:52.734Z,101197.00
2022-11-29T03:15:28.520Z,101203.00
2022-11-29T03:18:16.832Z,101199.00
2022-11-29T03:21:16.255Z,101205.00
2022-11-29T03:23:53.263Z,101198.00
2022-11-29T03:26:49.333Z,101202.00
2022-11-29T03:29:34.776Z,101200.00
2022-11-29T03:32:34.107Z,101212.00
2022-11-29T03:35:14.892Z,101204.00
2022-11-29T03:38:20.433Z,101211.00
2022-11-29T03:41:09.273Z,101208.00
2022-11-29T03:43:55.425Z,101214.00
2022-11-29T03:46:47.878Z,101219.00
2022-11-29T03:49:31.081Z,101230.00
2022-11-29T03:52:28.191Z,101225.00
2022-11-29T03:55:45.179Z,101224.00
2022-11-29T03:58:35.967Z,101224.00
2022-11-29T04:01:33.707Z,101219.00
2022-11-29T04:04:47.712Z,101218.00
2022-11-29T04:07:23.427Z,101207.00
2022-11-29T04:10:37.943Z,101215.00
2022-11-29T04:13:46.524Z,101219.00
2022-11-29T04:16:59.819Z,101215.00
2022-11-29T04:20:07.290Z,101211.00
2022-11-29T04:23:18.117Z,101231.00
2022-11-29T04:26:34.966Z,101209.00
2022-11-29T04:29:41.550Z,101221.00
2022-11-29T04:33:03.482Z,101224.00
2022-11-29T04:36:05.761Z,101223.00
2022-11-29T04:39:09.443Z,101235.00
2022-11-29T04:42:14.462Z,101223.00
2022-11-29T04:45:12.185Z,101232.00
2022-11-29T04:48:07.445Z,101235.00
2022-11-29T04:51:09.141Z,101231.00
2022-11-29T04:54:20.932Z,101236.00
2022-11-29T04:56:54.509Z,101235.00
2022-11-29T04:59:43.490Z,101233.00
2022-11-29T05:02:34.478Z,101241.00
2022-11-29T05:05:27.233Z,101236.00
2022-11-29T05:08:19.584Z,101235.00
2022-11-29T05:11:31.539Z,101237.00
2022-11-29T05:15:14.444Z,101241.00
2022-11-29T05:18:23.052Z,101244.00
2022-11-29T05:22:00.321Z,101237.00
2022-11-29T05:24:35.969Z,101249.00
2022-11-29T05:27:27.132Z,101246.00
2022-11-29T05:30:11.335Z,101252.00
2022-11-29T05:33:37.589Z,101260.00
2022-11-29T05:36:11.081Z,101260.00
2022-11-29T05:39:44.352Z,101260.00
2022-11-29T05:42:52.518Z,101269.00
2022-11-29T05:45:36.202Z,101267.00
2022-11-29T05:48:17.349Z,101269.00
2022-11-29T05:51:07.022Z,101276.00
2022-11-29T05:53:47.482Z,101276.00
2022-11-29T05:56:36.942Z,101277.00
2022-11-29T05:59:13.461Z,101276.00
2022-11-29T06:02:05.989Z,101274.00
2022-11-29T06:05:24.210Z,101281.00
2022-11-29T06:08:08.806Z,101289.00
2022-11-29T06:10:41.597Z,101296.00
2022-11-29T06:13:55.337Z,101291.00
2022-11-29T06:16:57.221Z,101297.00
2022-11-29T06:19:52.403Z,101301.00
2022-11-29T06:22:56.179Z,101301.00
2022-11-29T06:25:32.756Z,101297.00
2022-11-29T06:28:28.032Z,101304.00
2022-11-29T06:31:19.471Z,101316.00
2022-11-29T06:34:30.518Z,101320.00
2022-11-29T06:37:20.049Z,101316.00
2022-11-29T06:39:47.216Z,101321.00
2022-11-29T06:42:13.939Z,101318.00
2022-11-29T06:44:41.580Z,101316.00
2022-11-29T06:47:29.144Z,101317.00
2022-11-29T06:50:26.377Z,101329.00
2022-11-29T06:53:16.824Z,101315.00
2022-11-29T06:56:17.553Z,101334.00
2022-11-29T06:59:24.987Z,101333.00
2022-11-29T07:02:11.165Z,101341.00
2022-11-29T07:05:15.906Z,101339.00
2022-11-29T07:07:43.332Z,101348.00
2022-11-29T07:10:17.447Z,101342.00
2022-11-29T07:12:47.745Z,101349.00
2022-11-29T07:15:19.260Z,101339.00
2022-11-29T07:18:22.209Z,101355.00
2022-11-29T07:21:17.615Z,101350.00
2022-11-29T07:24:09.614Z,101356.00
2022-11-29T07:26:59.705Z,101343.00
2022-11-29T07:30:03.295Z,101359.00
2022-11-29T07:33:06.564Z,101359.00
2022-11-29T07:36:03.537Z,101350.00
2022-11-29T07:39:28.748Z,101366.00
2022-11-29T07:42:07.953Z,101357.00
2022-11-29T07:44:52.222Z,101358.00
2022-11-29T07:47:19.032Z,101373.00
2022-11-29T07:49:45.761Z,101378.00
2022-11-29T07:52:14.963Z,101375.00
2022-11-29T07:54:42.370Z,101375.00
2022-11-29T07:57:09.275Z,101370.00
2022-11-29T07:59:36.031Z,101382.00
2022-11-29T08:02:06.541Z,101385.00
2022-11-29T08:04:44.377Z,101381.00
2022-11-29T08:07:11.629Z,101386.00
2022-11-29T08:09:38.347Z,101384.00
2022-11-29T08:12:05.402Z,101376.00
2022-11-29T08:14:33.330Z,101386.00
2022-11-29T08:17:00.123Z,101384.00
2022-11-29T08:19:26.878Z,101393.00
2022-11-29T08:21:53.907Z,101396.00
2022-11-29T08:24:20.663Z,101400.00
2022-11-29T08:26:47.435Z,101398.00
2022-11-29T08:29:15.285Z,101394.00
2022-11-29T08:31:42.084Z,101397.00
2022-11-29T08:34:10.655Z,101402.00
2022-11-29T08:36:37.952Z,101403.00
2022-11-29T08:39:09.354Z,101403.00
2022-11-29T08:41:36.628Z,101404.00
2022-11-29T08:44:05.827Z,101403.00
2022-11-29T08:46:50.859Z,101394.00
2022-11-29T08:49:17.988Z,101397.00
2022-11-29T08:51:44.861Z,101405.00
2022-11-29T08:54:11.621Z,101413.00
2022-11-29T08:59:25.175Z,101400.00
2022-11-29T09:01:52.148Z,101407.00
2022-11-29T09:04:18.940Z,101402.00
2022-11-29T09:06:45.738Z,101398.00
2022-11-29T09:09:12.522Z,101401.00
2022-11-29T09:11:39.353Z,101415.00
2022-11-29T09:14:09.101Z,101410.00
2022-11-29T09:16:38.166Z,101408.00
2022-11-29T09:19:07.466Z,101412.00
2022-11-29T09:21:38.483Z,101420.00
2022-11-29T09:24:06.730Z,101423.00
2022-11-29T09:26:37.796Z,101415.00
2022-11-29T09:29:06.577Z,101427.00
2022-11-29T09:31:34.951Z,101417.00
2022-11-29T09:34:02.319Z,101423.00
2022-11-29T09:36:30.799Z,101423.00
2022-11-29T09:38:58.460Z,101423.00
2022-11-29T09:41:48.919Z,101431.00
2022-11-29T09:44:40.676Z,101422.00
2022-11-29T09:47:48.904Z,101428.00
2022-11-29T09:51:02.429Z,101422.00
2022-11-29T09:54:37.625Z,101427.00
2022-11-29T09:57:10.680Z,101421.00
2022-11-29T09:59:43.400Z,101422.00
2022-11-29T10:02:38.030Z,101419.00
2022-11-29T10:05:22.711Z,101427.00
2022-11-29T10:08:13.418Z,101429.00
2022-11-29T10:10:46.290Z,101431.00
2022-11-29T10:13:27.029Z,101437.00
2022-11-29T10:16:06.124Z,101427.00
2022-11-29T10:18:39.183Z,101435.00
2022-11-29T10:21:16.000Z,101430.00
2022-11-29T10:23:50.931Z,101427.00
2022-11-29T10:26:18.151Z,101436.00
2022-11-29T10:28:47.581Z,101441.00
2022-11-29T10:31:44.090Z,101441.00
2022-11-29T10:34:18.661Z,101439.00
2022-11-29T10:37:02.574Z,101441.00
2022-11-29T10:39:39.708Z,101441.00
2022-11-29T10:42:37.184Z,101453.00
2022-11-29T10:45:22.331Z,101443.00
2022-11-29T10:47:52.483Z,101453.00
2022-11-29T10:50:33.494Z,101454.00
2022-11-29T10:53:08.599Z,101455.00
2022-11-29T10:55:54.909Z,101446.00
2022-11-29T10:58:28.734Z,101445.00
2022-11-29T11:01:08.458Z,101454.00
2022-11-29T11:03:53.194Z,101454.00
2022-11-29T11:06:22.369Z,101456.00
2022-11-29T11:08:57.654Z,101444.00
2022-11-29T11:11:32.187Z,101451.00
2022-11-29T11:14:20.598Z,101454.00
2022-11-29T11:16:47.636Z,101452.00
2022-11-29T11:19:34.831Z,101453.00
2022-11-29T11:22:04.020Z,101451.00
2022-11-29T11:24:37.477Z,101449.00
2022-11-29T11:27:04.365Z,101457.00
2022-11-29T11:29:45.293Z,101452.00
2022-11-29T11:32:19.070Z,101454.00
2022-11-29T11:34:54.095Z,101467.00
2022-11-29T11:37:28.052Z,101459.00
2022-11-29T11:40:01.163Z,101454.00
2022-11-29T11:42:40.461Z,101465.00
2022-11-29T11:45:12.979Z,101463.00
2022-11-29T11:47:53.882Z,101453.00
2022-11-29T11:50:37.511Z,101455.00
2022-11-29T11:53:21.999Z,101458.00
2022-11-29T11:56:05.816Z,101468.00
2022-11-29T11:58:45.654Z,101460.00
2022-11-29T12:01:12.376Z,101461.00
2022-11-29T12:04:04.169Z,101476.00
2022-11-29T12:07:00.457Z,101458.00
2022-11-29T12:09:53.333Z,101469.00
2022-11-29T12:12:37.074Z,101470.00
2022-11-29T12:15:35.469Z,101468.00
2022-11-29T12:18:22.500Z,101471.00
2022-11-29T12:21:17.538Z,101469.00
2022-11-29T12:23:54.795Z,101480.00
2022-11-29T12:26:57.177Z,101478.00
2022-11-29T12:29:22.628Z,101464.00
2022-11-29T12:32:32.943Z,101472.00
2022-11-29T12:35:35.409Z,101475.00
2022-11-29T12:38:47.719Z,101483.00
2022-11-29T12:41:47.193Z,101486.00
2022-11-29T12:45:20.526Z,101484.00
2022-11-29T12:48:03.124Z,101490.00
2022-11-29T12:50:50.344Z,101486.00
2022-11-29T12:53:41.409Z,101487.00
2022-11-29T12:56:39.525Z,101496.00
2022-11-29T12:59:41.933Z,101506.00
2022-11-29T13:02:31.229Z,101509.00
2022-11-29T13:05:30.976Z,101504.00
2022-11-29T13:08:35.868Z,101504.00
2022-11-29T13:11:17.313Z,101507.00
2022-11-29T13:14:20.108Z,101514.00
2022-11-29T13:17:01.283Z,101509.00
2022-11-29T13:19:52.928Z,101509.00
2022-11-29T13:22:51.386Z,101513.00
2022-11-29T13:25:40.033Z,101515.00
2022-11-29T13:28:22.326Z,101515.00
2022-11-29T13:30:50.042Z,101509.00
2022-11-29T13:33:34.558Z,101520.00
2022-11-29T13:36:21.909Z,101518.00
2022-11-29T13:39:39.011Z,101523.00
2022-11-29T13:42:18.836Z,101526.00
2022-11-29T13:45:13.203Z,101519.00
2022-11-29T13:47:56.126Z,101531.00
2022-11-29T13:50:45.912Z,101517.00
2022-11-29T13:53:19.210Z,101526.00
2022-11-29T13:56:00.600Z,101527.00
2022-11-29T13:58:40.169Z,101522.00
2022-11-29T14:01:12.770Z,101529.00
2022-11-29T14:03:42.911Z,101532.00
2022-11-29T14:06:21.901Z,101525.00
2022-11-29T14:09:22.367Z,101531.00
2022-11-29T14:12:01.676Z,101536.00
2022-11-29T14:14:52.195Z,101524.00
2022-11-29T14:17:57.110Z,101535.00
2022-11-29T14:20:24.070Z,101545.00
2022-11-29T14:23:05.594Z,101543.00
2022-11-29T14:25:53.711Z,101544.00
2022-11-29T14:28:23.502Z,101545.00
2022-11-29T14:31:03.538Z,101532.00
2022-11-29T14:34:02.355Z,101545.00
2022-11-29T14:36:46.853Z,101549.00
2022-11-29T14:39:52.014Z,101548.00
2022-11-29T14:42:23.245Z,101548.00
2022-11-29T14:44:54.271Z,101556.00
2022-11-29T14:47:37.132Z,101551.00
2022-11-29T14:50:09.199Z,101557.00
2022-11-29T14:52:50.794Z,101546.00
2022-11-29T14:55:17.574Z,101560.00
2022-11-29T14:57:47.447Z,101562.00
2022-11-29T15:00:18.557Z,101566.00
2022-11-29T15:02:52.603Z,101559.00
2022-11-29T15:05:31.582Z,101564.00
2022-11-29T15:08:25.138Z,101563.00
2022-11-29T15:11:02.265Z,101569.00
2022-11-29T15:13:35.800Z,101568.00
2022-11-29T15:16:49.695Z,101565.00
2022-11-29T15:19:49.135Z,101572.00
2022-11-29T15:22:22.591Z,101582.00
2022-11-29T15:25:05.133Z,101573.00
2022-11-29T15:27:35.091Z,101571.00
2022-11-29T15:30:38.408Z,101581.00
2022-11-29T15:33:25.286Z,101587.00
2022-11-29T15:35:56.016Z,101582.00
2022-11-29T15:38:24.355Z,101585.00
2022-11-29T15:40:54.684Z,101595.00
2022-11-29T15:43:33.596Z,101594.00
2022-11-29T15:46:01.177Z,101590.00
2022-11-29T15:48:32.668Z,101588.00
2022-11-29T15:51:15.999Z,101596.00
2022-11-29T15:54:13.081Z,101605.00
2022-11-29T15:56:44.228Z,101603.00
2022-11-29T15:59:59.168Z,101606.00
2022-11-29T16:02:33.606Z,101600.00
2022-11-29T16:05:17.740Z,101615.00
2022-11-29T16:07:47.859Z,101621.00
2022-11-29T16:10:23.747Z,101618.00
2022-11-29T16:12:57.885Z,101621.00
2022-11-29T16:15:38.670Z,101628.00
2022-11-29T16:18:23.320Z,101623.00
2022-11-29T16:21:04.264Z,101628.00
2022-11-29T16:23:42.257Z,101630.00
2022-11-29T16:26:23.757Z,101628.00
2022-11-29T16:28:53.455Z,101629.00
2022-11-29T16:31:30.602Z,101630.00
2022-11-29T16:33:57.817Z,101634.00
2022-11-29T16:36:26.922Z,101636.00
2022-11-29T16:39:07.847Z,101638.00
2022-11-29T16:41:38.988Z,101629.00
2022-11-29T16:44:41.561Z,101644.00
2022-11-29T16:47:21.497Z,101647.00
2022-11-29T16:50:14.910Z,101656.00
2022-11-29T16:52:41.747Z,101651.00
2022-11-29T16:55:08.926Z,101650.00
2022-11-29T16:57:36.437Z,101654.00
2022-11-29T17:00:22.563Z,101656.00
2022-11-29T17:02:49.723Z,101653.00
2022-11-29T17:05:16.473Z,101662.00
2022-11-29T17:07:43.856Z,101657.00
2022-11-29T17:10:18.509Z,101659.00
2022-11-29T17:12:48.254Z,101666.00
2022-11-29T17:15:15.457Z,101665.00
2022-11-29T17:17:44.115Z,101653.00
2022-11-29T17:20:13.040Z,101661.00
2022-11-29T17:22:40.856Z,101660.00
2022-11-29T17:25:08.345Z,101661.00
2022-11-29T17:27:36.276Z,101668.00
2022-11-29T17:30:05.387Z,101657.00
2022-11-29T17:32:35.693Z,101673.00
2022-11-29T17:35:02.646Z,101670.00
2022-11-29T17:37:32.293Z,101670.00
2022-11-29T17:39:59.055Z,101666.00
2022-11-29T17:42:25.861Z,101670.00
2022-11-29T17:44:53.084Z,101667.00
2022-11-29T17:47:19.870Z,101671.00
2022-11-29T17:49:46.759Z,101672.00
2022-11-29T17:52:13.677Z,101673.00
2022-11-29T17:54:40.505Z,101676.00
2022-11-29T17:57:07.336Z,101679.00
2022-11-29T17:59:34.107Z,101684.00
2022-11-29T18:02:02.204Z,101685.00
2022-11-29T18:04:29.036Z,101681.00
2022-11-29T18:06:55.797Z,101680.00
2022-11-29T18:09:22.540Z,101687.00
2022-11-29T18:11:50.481Z,101686.00
2022-11-29T18:14:23.830Z,101682.00
2022-11-29T18:16:51.605Z,101688.00
2022-11-29T18:19:22.001Z,101686.00
2022-11-29T18:21:50.794Z,101689.00
2022-11-29T18:24:18.347Z,101693.00
2022-11-29T18:26:45.348Z,101698.00
2022-11-29T18:29:12.128Z,101701.00
2022-11-29T18:31:42.469Z,101707.00
2022-11-29T18:34:11.494Z,101700.00
2022-11-29T18:36:43.153Z,101704.00
2022-11-29T18:39:14.199Z,101705.00
2022-11-29T18:41:44.016Z,101706.00
2022-11-29T18:44:14.905Z,101698.00
2022-11-29T18:46:43.932Z,101701.00
2022-11-29T18:49:14.752Z,101703.00
2022-11-29T18:51:44.802Z,101712.00
2022-11-29T18:54:13.155Z,101707.00
2022-11-29T18:56:40.319Z,101713.00
2022-11-29T18:59:14.645Z,101710.00
2022-11-29T19:01:43.022Z,101713.00
2022-11-29T19:04:13.126Z,101704.00
2022-11-29T19:06:40.507Z,101711.00
2022-11-29T19:09:13.181Z,101710.00
2022-11-29T19:11:40.602Z,101719.00
2022-11-29T19:14:11.581Z,101718.00
2022-11-29T19:16:42.352Z,101718.00
2022-11-29T19:19:09.212Z,101718.00
2022-11-29T19:21:35.964Z,101717.00
2022-11-29T19:24:08.557Z,101715.00
2022-11-29T19:26:35.381Z,101715.00
2022-11-29T19:29:02.429Z,101721.00
2022-11-29T19:31:29.506Z,101717.00
2022-11-29T19:33:58.200Z,101719.00
2022-11-29T19:36:28.308Z,101715.00
2022-11-29T19:38:56.454Z,101717.00
2022-11-29T19:41:33.300Z,101722.00
2022-11-29T19:44:07.131Z,101728.00
2022-11-29T19:46:38.455Z,101720.00
2022-11-29T19:49:07.517Z,101718.00
2022-11-29T19:51:35.011Z,101718.00
2022-11-29T19:54:05.024Z,101716.00
2022-11-29T19:56:32.196Z,101721.00
2022-11-29T19:59:02.672Z,101718.00
2022-11-29T20:01:39.750Z,101722.00
2022-11-29T20:04:09.145Z,101728.00
2022-11-29T20:06:36.624Z,101724.00
2022-11-29T20:09:04.221Z,101740.00
2022-11-29T20:11:31.001Z,101733.00
2022-11-29T20:14:00.763Z,101737.00
2022-11-29T20:16:29.934Z,101732.00
2022-11-29T20:18:59.406Z,101741.00
2022-11-29T20:21:31.615Z,101727.00
2022-11-29T20:24:05.363Z,101733.00
2022-11-29T20:26:36.061Z,101738.00
2022-11-29T20:29:05.142Z,101740.00
2022-11-29T20:31:34.592Z,101745.00
2022-11-29T20:34:01.934Z,101745.00
2022-11-29T20:36:48.988Z,101744.00
2022-11-29T20:39:34.682Z,101743.00
2022-11-29T20:42:29.440Z,101734.00
2022-11-29T20:45:00.048Z,101757.00
2022-11-29T20:47:46.424Z,101756.00
2022-11-29T20:50:25.606Z,101753.00
2022-11-29T20:53:19.808Z,101764.00
2022-11-29T20:55:48.820Z,101757.00
2022-11-29T20:58:16.352Z,101754.00
2022-11-29T21:00:43.184Z,101764.00
2022-11-29T21:03:17.056Z,101760.00
2022-11-29T21:05:44.255Z,101765.00
2022-11-29T21:08:11.505Z,101776.00
2022-11-29T21:10:38.256Z,101765.00
2022-11-29T21:13:05.869Z,101763.00
2022-11-29T21:15:33.156Z,101773.00
2022-11-29T21:18:00.410Z,101768.00
2022-11-29T21:20:27.577Z,101762.00
2022-11-29T21:22:59.993Z,101765.00
2022-11-29T21:25:44.132Z,101774.00
2022-11-29T21:28:16.499Z,101784.00
2022-11-29T21:30:44.398Z,101778.00
2022-11-29T21:33:11.995Z,101778.00
2022-11-29T21:35:39.885Z,101781.00
2022-11-29T21:38:14.645Z,101785.00
2022-11-29T21:40:41.391Z,101768.00
2022-11-29T21:43:08.109Z,101785.00
2022-11-29T21:45:34.826Z,101785.00
2022-11-29T21:48:01.602Z,101779.00
2022-11-29T21:50:28.368Z,101776.00
2022-11-29T21:52:55.085Z,101779.00
2022-11-29T21:55:21.804Z,101787.00
2022-11-29T21:57:48.503Z,101791.00
2022-11-29T22:00:15.743Z,101785.00
2022-11-29T22:02:42.627Z,101786.00
2022-11-29T22:05:09.715Z,101796.00
2022-11-29T22:07:36.500Z,101787.00
2022-11-29T22:10:09.987Z,101791.00
2022-11-29T22:12:38.550Z,101793.00
2022-11-29T22:15:05.942Z,101791.00
2022-11-29T22:17:32.728Z,101789.00
2022-11-29T22:19:59.460Z,101797.00
2022-11-29T22:22:28.243Z,101794.00
2022-11-29T22:24:55.185Z,101778.00
2022-11-29T22:27:21.930Z,101794.00
2022-11-29T22:29:49.473Z,101799.00
2022-11-29T22:32:16.218Z,101803.00
2022-11-29T22:34:43.145Z,101793.00
2022-11-29T22:37:09.944Z,101803.00
2022-11-29T22:39:36.688Z,101800.00
2022-11-29T22:42:03.772Z,101808.00
2022-11-29T22:44:31.252Z,101802.00
2022-11-29T22:46:58.002Z,101804.00
2022-11-29T22:49:24.823Z,101803.00
2022-11-29T22:51:52.312Z,101796.00
2022-11-29T22:54:20.199Z,101803.00
2022-11-29T22:56:47.397Z,101798.00
2022-11-29T22:59:14.428Z,101806.00
2022-11-29T23:01:42.213Z,101812.00
2022-11-29T23:04:11.432Z,101809.00
2022-11-29T23:06:45.054Z,101807.00
2022-11-29T23:09:21.604Z,101808.00
2022-11-29T23:11:53.607Z,101821.00
2022-11-29T23:14:22.735Z,101805.00
2022-11-29T23:16:49.557Z,101812.00
2022-11-29T23:19:16.580Z,101807.00
2022-11-29T23:21:45.528Z,101797.00
2022-11-29T23:24:13.488Z,101811.00
2022-11-29T23:26:44.777Z,101811.00
2022-11-29T23:29:18.539Z,101812.00
2022-11-29T23:31:46.960Z,101805.00
2022-11-29T23:34:14.435Z,101804.00
2022-11-29T23:36:41.494Z,101813.00
2022-11-29T23:39:08.334Z,101806.00
2022-11-29T23:41:36.927Z,101803.00
2022-11-29T23:44:05.734Z,101798.00
2022-11-29T23:46:34.343Z,101803.00
2022-11-29T23:49:01.075Z,101809.00
2022-11-29T23:51:27.806Z,101811.00
2022-11-29T23:53:55.040Z,101807.00
2022-11-29T23:56:22.629Z,101802.00
2022-11-29T23:58:49.961Z,101800.00
